LFBL/LIG METAR and TAF weather

Enter ICAO airport designator
Station Type Date Time Source
LFBL METAR 2019/02/22 23:00 UTC NOAA

LFBL 222300Z AUTO 06011KT CAVOK 12/05 Q1030 NOSIG


Station Type Date Time Source
LFBL Decoded METAR 2019/02/22 23:00 UTC NOAA

Limoges, France (LFBL) 45-52N 001-11E 402M
Feb 22, 2019 - 06:00 PM EST / 2019.02.22 2300 UTC
Wind: from the ENE (060 degrees) at 13 MPH (11 KT):0
Visibility: greater than 7 mile(s):0
Temperature: 53 F (12 C)
Dew Point: 41 F (5 C)
Relative Humidity: 62%
Pressure (altimeter): 30.42 in. Hg (1030 hPa)
ob: LFBL 222300Z AUTO 06011KT CAVOK 12/05 Q1030 NOSIG
cycle: 23

Station Type Date Time Source
LFBL TAF 2019/02/22 18:21 UTC NOAA

TAF TAF LFBL 221700Z 2218/2318 05010KT CAVOK
TEMPO 2310/2314 35006KT


Example: see airport list